sensor_id;sensor_type;location;lat;lon;timestamp;P1;durP1;ratioP1;P2;durP2;ratioP2
28078;SDS011;15388;42.238;24.684;2024-03-22T00:02:07;23.85;;;12.52;;
28078;SDS011;15388;42.238;24.684;2024-03-22T00:04:34;21.65;;;14.45;;
28078;SDS011;15388;42.238;24.684;2024-03-22T00:07:00;20.65;;;14.63;;
28078;SDS011;15388;42.238;24.684;2024-03-22T00:09:26;19.90;;;13.57;;
28078;SDS011;15388;42.238;24.684;2024-03-22T00:11:51;25.15;;;14.43;;
28078;SDS011;15388;42.238;24.684;2024-03-22T00:14:16;20.42;;;12.52;;
28078;SDS011;15388;42.238;24.684;2024-03-22T00:16:42;21.80;;;12.50;;
28078;SDS011;15388;42.238;24.684;2024-03-22T00:19:07;22.50;;;13.52;;
28078;SDS011;15388;42.238;24.684;2024-03-22T00:21:32;18.45;;;11.90;;
28078;SDS011;15388;42.238;24.684;2024-03-22T00:23:58;16.48;;;11.80;;
28078;SDS011;15388;42.238;24.684;2024-03-22T00:26:23;19.58;;;12.20;;
28078;SDS011;15388;42.238;24.684;2024-03-22T00:28:48;20.00;;;12.57;;
28078;SDS011;15388;42.238;24.684;2024-03-22T00:31:14;18.90;;;12.30;;
28078;SDS011;15388;42.238;24.684;2024-03-22T00:33:39;18.42;;;11.27;;
28078;SDS011;15388;42.238;24.684;2024-03-22T00:36:05;22.98;;;13.45;;
28078;SDS011;15388;42.238;24.684;2024-03-22T00:38:30;19.35;;;12.27;;
28078;SDS011;15388;42.238;24.684;2024-03-22T00:40:56;19.70;;;12.05;;
28078;SDS011;15388;42.238;24.684;2024-03-22T00:43:21;123.47;;;46.50;;
28078;SDS011;15388;42.238;24.684;2024-03-22T00:45:47;25.83;;;14.35;;
28078;SDS011;15388;42.238;24.684;2024-03-22T00:48:12;16.85;;;10.60;;
28078;SDS011;15388;42.238;24.684;2024-03-22T00:50:38;16.42;;;11.02;;
28078;SDS011;15388;42.238;24.684;2024-03-22T00:53:03;19.17;;;12.30;;
28078;SDS011;15388;42.238;24.684;2024-03-22T00:55:30;17.35;;;11.38;;
28078;SDS011;15388;42.238;24.684;2024-03-22T00:57:55;17.10;;;11.75;;
28078;SDS011;15388;42.238;24.684;2024-03-22T01:00:21;24.58;;;14.48;;
28078;SDS011;15388;42.238;24.684;2024-03-22T01:02:46;19.23;;;13.57;;
28078;SDS011;15388;42.238;24.684;2024-03-22T01:05:11;18.50;;;11.55;;
28078;SDS011;15388;42.238;24.684;2024-03-22T01:07:37;23.83;;;14.93;;
28078;SDS011;15388;42.238;24.684;2024-03-22T01:10:03;31.65;;;17.10;;
28078;SDS011;15388;42.238;24.684;2024-03-22T01:12:28;28.40;;;14.05;;
28078;SDS011;15388;42.238;24.684;2024-03-22T01:14:53;34.40;;;19.88;;
28078;SDS011;15388;42.238;24.684;2024-03-22T01:17:19;28.33;;;16.17;;
28078;SDS011;15388;42.238;24.684;2024-03-22T01:19:44;22.83;;;14.27;;
28078;SDS011;15388;42.238;24.684;2024-03-22T01:22:09;31.38;;;16.10;;
28078;SDS011;15388;42.238;24.684;2024-03-22T01:24:35;30.40;;;16.75;;
28078;SDS011;15388;42.238;24.684;2024-03-22T01:27:00;28.92;;;16.55;;
28078;SDS011;15388;42.238;24.684;2024-03-22T01:29:25;35.70;;;18.98;;
28078;SDS011;15388;42.238;24.684;2024-03-22T01:31:52;28.40;;;17.90;;
28078;SDS011;15388;42.238;24.684;2024-03-22T01:34:17;23.23;;;16.00;;
28078;SDS011;15388;42.238;24.684;2024-03-22T01:36:43;32.78;;;19.88;;
28078;SDS011;15388;42.238;24.684;2024-03-22T01:39:08;30.60;;;17.92;;
28078;SDS011;15388;42.238;24.684;2024-03-22T01:41:33;27.98;;;17.67;;
28078;SDS011;15388;42.238;24.684;2024-03-22T01:43:59;28.00;;;17.10;;
28078;SDS011;15388;42.238;24.684;2024-03-22T01:46:24;30.92;;;18.95;;
28078;SDS011;15388;42.238;24.684;2024-03-22T01:48:50;37.97;;;20.67;;
28078;SDS011;15388;42.238;24.684;2024-03-22T01:51:15;35.20;;;19.45;;
28078;SDS011;15388;42.238;24.684;2024-03-22T01:53:40;28.13;;;17.42;;
28078;SDS011;15388;42.238;24.684;2024-03-22T01:56:06;31.40;;;19.42;;
28078;SDS011;15388;42.238;24.684;2024-03-22T01:58:32;33.53;;;18.60;;
28078;SDS011;15388;42.238;24.684;2024-03-22T02:00:58;39.03;;;20.63;;
28078;SDS011;15388;42.238;24.684;2024-03-22T02:03:23;29.58;;;18.02;;
28078;SDS011;15388;42.238;24.684;2024-03-22T02:05:48;26.98;;;16.77;;
28078;SDS011;15388;42.238;24.684;2024-03-22T02:08:14;24.38;;;16.38;;
28078;SDS011;15388;42.238;24.684;2024-03-22T02:10:39;30.08;;;17.92;;
28078;SDS011;15388;42.238;24.684;2024-03-22T02:13:04;27.88;;;18.35;;
28078;SDS011;15388;42.238;24.684;2024-03-22T02:15:29;27.65;;;18.30;;
28078;SDS011;15388;42.238;24.684;2024-03-22T02:17:55;33.97;;;18.75;;
28078;SDS011;15388;42.238;24.684;2024-03-22T02:20:20;29.02;;;18.45;;
28078;SDS011;15388;42.238;24.684;2024-03-22T02:22:45;28.95;;;19.88;;
28078;SDS011;15388;42.238;24.684;2024-03-22T02:25:11;36.22;;;19.80;;
28078;SDS011;15388;42.238;24.684;2024-03-22T02:27:37;34.33;;;20.92;;
28078;SDS011;15388;42.238;24.684;2024-03-22T02:30:02;35.20;;;19.40;;
28078;SDS011;15388;42.238;24.684;2024-03-22T02:32:27;30.13;;;20.20;;
28078;SDS011;15388;42.238;24.684;2024-03-22T02:34:53;26.70;;;19.42;;
28078;SDS011;15388;42.238;24.684;2024-03-22T02:37:18;34.05;;;21.35;;
28078;SDS011;15388;42.238;24.684;2024-03-22T02:39:43;38.85;;;20.17;;
28078;SDS011;15388;42.238;24.684;2024-03-22T02:42:09;35.05;;;20.50;;
28078;SDS011;15388;42.238;24.684;2024-03-22T02:44:34;36.67;;;21.38;;
28078;SDS011;15388;42.238;24.684;2024-03-22T02:46:59;36.53;;;21.90;;
28078;SDS011;15388;42.238;24.684;2024-03-22T02:49:25;32.95;;;19.90;;
28078;SDS011;15388;42.238;24.684;2024-03-22T02:51:50;36.03;;;21.27;;
28078;SDS011;15388;42.238;24.684;2024-03-22T02:54:15;38.97;;;22.52;;
28078;SDS011;15388;42.238;24.684;2024-03-22T02:56:41;34.53;;;23.00;;
28078;SDS011;15388;42.238;24.684;2024-03-22T02:59:06;37.15;;;23.85;;
28078;SDS011;15388;42.238;24.684;2024-03-22T03:01:31;44.13;;;26.35;;
28078;SDS011;15388;42.238;24.684;2024-03-22T03:03:57;44.67;;;25.23;;
28078;SDS011;15388;42.238;24.684;2024-03-22T03:06:22;49.42;;;25.88;;
28078;SDS011;15388;42.238;24.684;2024-03-22T03:08:47;44.03;;;23.48;;
28078;SDS011;15388;42.238;24.684;2024-03-22T03:11:14;41.30;;;23.77;;
28078;SDS011;15388;42.238;24.684;2024-03-22T03:13:39;47.40;;;25.00;;
28078;SDS011;15388;42.238;24.684;2024-03-22T03:16:04;43.67;;;24.60;;
28078;SDS011;15388;42.238;24.684;2024-03-22T03:18:30;49.42;;;26.33;;
28078;SDS011;15388;42.238;24.684;2024-03-22T03:20:55;45.25;;;25.77;;
28078;SDS011;15388;42.238;24.684;2024-03-22T03:23:20;40.65;;;24.75;;
28078;SDS011;15388;42.238;24.684;2024-03-22T03:25:46;42.28;;;25.83;;
28078;SDS011;15388;42.238;24.684;2024-03-22T03:28:11;43.40;;;25.90;;
28078;SDS011;15388;42.238;24.684;2024-03-22T03:30:38;38.58;;;24.58;;
28078;SDS011;15388;42.238;24.684;2024-03-22T03:33:03;44.83;;;23.58;;
28078;SDS011;15388;42.238;24.684;2024-03-22T03:35:28;47.05;;;24.75;;
28078;SDS011;15388;42.238;24.684;2024-03-22T03:37:54;41.60;;;24.40;;
28078;SDS011;15388;42.238;24.684;2024-03-22T03:40:19;46.55;;;25.55;;
28078;SDS011;15388;42.238;24.684;2024-03-22T03:42:46;45.67;;;25.20;;
28078;SDS011;15388;42.238;24.684;2024-03-22T03:45:12;35.35;;;22.98;;
28078;SDS011;15388;42.238;24.684;2024-03-22T03:47:37;40.90;;;23.92;;
28078;SDS011;15388;42.238;24.684;2024-03-22T03:50:03;44.97;;;24.45;;
28078;SDS011;15388;42.238;24.684;2024-03-22T03:52:28;49.78;;;24.52;;
28078;SDS011;15388;42.238;24.684;2024-03-22T03:54:53;43.33;;;23.60;;
28078;SDS011;15388;42.238;24.684;2024-03-22T03:57:19;39.53;;;21.60;;
28078;SDS011;15388;42.238;24.684;2024-03-22T03:59:44;41.17;;;22.10;;
28078;SDS011;15388;42.238;24.684;2024-03-22T04:02:09;42.17;;;22.00;;
28078;SDS011;15388;42.238;24.684;2024-03-22T04:04:35;47.67;;;25.13;;
28078;SDS011;15388;42.238;24.684;2024-03-22T04:07:01;55.17;;;27.85;;
28078;SDS011;15388;42.238;24.684;2024-03-22T04:09:26;52.50;;;25.70;;
28078;SDS011;15388;42.238;24.684;2024-03-22T04:11:51;49.83;;;25.95;;
28078;SDS011;15388;42.238;24.684;2024-03-22T04:14:16;67.35;;;33.80;;
28078;SDS011;15388;42.238;24.684;2024-03-22T04:16:42;59.83;;;33.88;;
28078;SDS011;15388;42.238;24.684;2024-03-22T04:19:07;56.50;;;31.02;;
28078;SDS011;15388;42.238;24.684;2024-03-22T04:21:32;40.00;;;23.38;;
28078;SDS011;15388;42.238;24.684;2024-03-22T04:23:58;50.28;;;29.58;;
28078;SDS011;15388;42.238;24.684;2024-03-22T04:26:23;60.92;;;27.50;;
28078;SDS011;15388;42.238;24.684;2024-03-22T04:28:48;41.35;;;23.83;;
28078;SDS011;15388;42.238;24.684;2024-03-22T04:31:14;178.65;;;78.65;;
28078;SDS011;15388;42.238;24.684;2024-03-22T04:33:40;180.87;;;75.67;;
28078;SDS011;15388;42.238;24.684;2024-03-22T04:36:06;129.32;;;55.22;;
28078;SDS011;15388;42.238;24.684;2024-03-22T04:38:31;73.43;;;35.40;;
28078;SDS011;15388;42.238;24.684;2024-03-22T04:40:57;90.18;;;42.03;;
28078;SDS011;15388;42.238;24.684;2024-03-22T04:43:23;247.80;;;90.68;;
28078;SDS011;15388;42.238;24.684;2024-03-22T04:45:49;404.23;;;145.03;;
28078;SDS011;15388;42.238;24.684;2024-03-22T04:48:16;325.02;;;121.75;;
28078;SDS011;15388;42.238;24.684;2024-03-22T04:50:42;271.57;;;96.97;;
28078;SDS011;15388;42.238;24.684;2024-03-22T04:53:07;72.18;;;33.83;;
28078;SDS011;15388;42.238;24.684;2024-03-22T04:55:32;74.13;;;35.72;;
28078;SDS011;15388;42.238;24.684;2024-03-22T04:57:58;71.40;;;29.65;;
28078;SDS011;15388;42.238;24.684;2024-03-22T05:00:23;91.28;;;42.63;;
28078;SDS011;15388;42.238;24.684;2024-03-22T05:02:50;65.93;;;30.07;;
28078;SDS011;15388;42.238;24.684;2024-03-22T05:05:15;37.92;;;21.45;;
28078;SDS011;15388;42.238;24.684;2024-03-22T05:07:40;82.97;;;35.67;;
28078;SDS011;15388;42.238;24.684;2024-03-22T05:10:06;115.00;;;48.45;;
28078;SDS011;15388;42.238;24.684;2024-03-22T05:12:31;36.72;;;18.77;;
28078;SDS011;15388;42.238;24.684;2024-03-22T05:14:56;46.65;;;22.17;;
28078;SDS011;15388;42.238;24.684;2024-03-22T05:17:22;60.00;;;32.80;;
28078;SDS011;15388;42.238;24.684;2024-03-22T05:19:47;66.28;;;35.80;;
28078;SDS011;15388;42.238;24.684;2024-03-22T05:22:13;61.70;;;32.38;;
28078;SDS011;15388;42.238;24.684;2024-03-22T05:24:38;61.90;;;30.10;;
28078;SDS011;15388;42.238;24.684;2024-03-22T05:27:03;38.75;;;22.35;;
28078;SDS011;15388;42.238;24.684;2024-03-22T05:29:29;40.15;;;21.35;;
28078;SDS011;15388;42.238;24.684;2024-03-22T05:31:54;37.08;;;19.98;;
28078;SDS011;15388;42.238;24.684;2024-03-22T05:34:19;35.53;;;18.98;;
28078;SDS011;15388;42.238;24.684;2024-03-22T05:36:45;38.42;;;21.08;;
28078;SDS011;15388;42.238;24.684;2024-03-22T05:39:10;32.40;;;20.55;;
28078;SDS011;15388;42.238;24.684;2024-03-22T05:41:36;44.33;;;22.20;;
28078;SDS011;15388;42.238;24.684;2024-03-22T05:44:02;47.60;;;24.35;;
28078;SDS011;15388;42.238;24.684;2024-03-22T05:46:28;53.47;;;25.30;;
28078;SDS011;15388;42.238;24.684;2024-03-22T05:48:53;45.13;;;23.60;;
28078;SDS011;15388;42.238;24.684;2024-03-22T05:51:18;44.17;;;25.50;;
28078;SDS011;15388;42.238;24.684;2024-03-22T05:53:44;38.63;;;22.48;;
28078;SDS011;15388;42.238;24.684;2024-03-22T05:56:09;47.95;;;24.25;;
28078;SDS011;15388;42.238;24.684;2024-03-22T05:58:34;41.35;;;21.80;;
28078;SDS011;15388;42.238;24.684;2024-03-22T06:01:01;33.60;;;18.75;;
28078;SDS011;15388;42.238;24.684;2024-03-22T06:03:26;32.25;;;19.30;;
28078;SDS011;15388;42.238;24.684;2024-03-22T06:05:52;31.70;;;18.85;;
28078;SDS011;15388;42.238;24.684;2024-03-22T06:08:20;32.70;;;19.58;;
28078;SDS011;15388;42.238;24.684;2024-03-22T06:10:46;35.92;;;22.50;;
28078;SDS011;15388;42.238;24.684;2024-03-22T06:13:11;35.63;;;18.10;;
28078;SDS011;15388;42.238;24.684;2024-03-22T06:15:36;34.70;;;19.73;;
28078;SDS011;15388;42.238;24.684;2024-03-22T06:18:01;44.10;;;30.20;;
28078;SDS011;15388;42.238;24.684;2024-03-22T06:20:27;37.00;;;19.88;;
28078;SDS011;15388;42.238;24.684;2024-03-22T06:22:52;38.28;;;22.00;;
28078;SDS011;15388;42.238;24.684;2024-03-22T06:25:17;31.67;;;18.85;;
28078;SDS011;15388;42.238;24.684;2024-03-22T06:27:43;35.55;;;20.63;;
28078;SDS011;15388;42.238;24.684;2024-03-22T06:30:08;35.85;;;19.65;;
28078;SDS011;15388;42.238;24.684;2024-03-22T06:32:33;33.95;;;19.58;;
28078;SDS011;15388;42.238;24.684;2024-03-22T06:34:59;28.13;;;16.83;;
28078;SDS011;15388;42.238;24.684;2024-03-22T06:37:24;26.75;;;15.30;;
28078;SDS011;15388;42.238;24.684;2024-03-22T06:39:49;22.98;;;14.25;;
28078;SDS011;15388;42.238;24.684;2024-03-22T06:42:15;29.00;;;17.77;;
28078;SDS011;15388;42.238;24.684;2024-03-22T06:44:40;24.10;;;14.10;;
28078;SDS011;15388;42.238;24.684;2024-03-22T06:47:05;19.35;;;12.68;;
28078;SDS011;15388;42.238;24.684;2024-03-22T06:49:30;20.33;;;13.30;;
28078;SDS011;15388;42.238;24.684;2024-03-22T06:51:56;20.80;;;10.88;;
28078;SDS011;15388;42.238;24.684;2024-03-22T06:54:21;21.92;;;11.43;;
28078;SDS011;15388;42.238;24.684;2024-03-22T06:56:47;21.50;;;11.15;;
28078;SDS011;15388;42.238;24.684;2024-03-22T06:59:12;16.60;;;12.75;;
28078;SDS011;15388;42.238;24.684;2024-03-22T07:01:37;16.15;;;11.30;;
28078;SDS011;15388;42.238;24.684;2024-03-22T07:04:02;17.73;;;12.25;;
28078;SDS011;15388;42.238;24.684;2024-03-22T07:06:28;15.23;;;10.68;;
28078;SDS011;15388;42.238;24.684;2024-03-22T07:08:53;21.38;;;12.77;;
28078;SDS011;15388;42.238;24.684;2024-03-22T07:11:18;20.02;;;12.65;;
28078;SDS011;15388;42.238;24.684;2024-03-22T07:13:44;18.10;;;11.30;;
28078;SDS011;15388;42.238;24.684;2024-03-22T07:16:09;20.40;;;12.38;;
28078;SDS011;15388;42.238;24.684;2024-03-22T07:18:35;22.80;;;12.85;;
28078;SDS011;15388;42.238;24.684;2024-03-22T07:21:00;22.25;;;12.30;;
28078;SDS011;15388;42.238;24.684;2024-03-22T07:23:27;19.35;;;11.27;;
28078;SDS011;15388;42.238;24.684;2024-03-22T07:25:52;18.13;;;11.25;;
28078;SDS011;15388;42.238;24.684;2024-03-22T07:28:18;15.45;;;9.43;;
28078;SDS011;15388;42.238;24.684;2024-03-22T07:30:43;43.58;;;13.05;;
28078;SDS011;15388;42.238;24.684;2024-03-22T07:33:10;16.13;;;11.18;;
28078;SDS011;15388;42.238;24.684;2024-03-22T07:35:38;16.20;;;11.27;;
28078;SDS011;15388;42.238;24.684;2024-03-22T07:38:03;17.25;;;11.40;;
28078;SDS011;15388;42.238;24.684;2024-03-22T07:40:29;15.20;;;10.15;;
28078;SDS011;15388;42.238;24.684;2024-03-22T07:42:54;15.63;;;11.10;;
28078;SDS011;15388;42.238;24.684;2024-03-22T07:45:20;18.73;;;12.40;;
28078;SDS011;15388;42.238;24.684;2024-03-22T07:47:45;13.88;;;10.32;;
28078;SDS011;15388;42.238;24.684;2024-03-22T07:50:10;16.02;;;10.13;;
28078;SDS011;15388;42.238;24.684;2024-03-22T07:52:36;17.83;;;11.15;;
28078;SDS011;15388;42.238;24.684;2024-03-22T07:55:01;19.77;;;13.93;;
28078;SDS011;15388;42.238;24.684;2024-03-22T07:57:28;20.70;;;11.77;;
28078;SDS011;15388;42.238;24.684;2024-03-22T07:59:55;16.08;;;12.05;;
28078;SDS011;15388;42.238;24.684;2024-03-22T08:02:21;18.23;;;10.63;;
28078;SDS011;15388;42.238;24.684;2024-03-22T08:04:46;14.15;;;9.52;;
28078;SDS011;15388;42.238;24.684;2024-03-22T08:07:11;14.52;;;10.07;;
28078;SDS011;15388;42.238;24.684;2024-03-22T08:09:37;15.60;;;11.43;;
28078;SDS011;15388;42.238;24.684;2024-03-22T08:12:02;17.20;;;9.93;;
28078;SDS011;15388;42.238;24.684;2024-03-22T08:14:27;20.27;;;11.27;;
28078;SDS011;15388;42.238;24.684;2024-03-22T08:16:53;16.83;;;10.15;;
28078;SDS011;15388;42.238;24.684;2024-03-22T08:19:18;14.20;;;9.68;;
28078;SDS011;15388;42.238;24.684;2024-03-22T08:21:43;18.88;;;11.07;;
28078;SDS011;15388;42.238;24.684;2024-03-22T08:24:09;12.23;;;9.02;;
28078;SDS011;15388;42.238;24.684;2024-03-22T08:26:34;18.67;;;11.55;;
28078;SDS011;15388;42.238;24.684;2024-03-22T08:28:59;15.73;;;10.98;;
28078;SDS011;15388;42.238;24.684;2024-03-22T08:31:24;13.43;;;9.25;;
28078;SDS011;15388;42.238;24.684;2024-03-22T08:36:17;13.13;;;8.67;;
28078;SDS011;15388;42.238;24.684;2024-03-22T08:38:42;14.00;;;10.30;;
28078;SDS011;15388;42.238;24.684;2024-03-22T08:41:07;10.02;;;9.02;;
28078;SDS011;15388;42.238;24.684;2024-03-22T08:43:33;12.73;;;8.68;;
28078;SDS011;15388;42.238;24.684;2024-03-22T08:45:58;15.18;;;9.45;;
28078;SDS011;15388;42.238;24.684;2024-03-22T08:48:23;12.20;;;9.20;;
28078;SDS011;15388;42.238;24.684;2024-03-22T08:50:49;12.55;;;8.25;;
28078;SDS011;15388;42.238;24.684;2024-03-22T08:53:14;13.40;;;8.88;;
28078;SDS011;15388;42.238;24.684;2024-03-22T08:55:46;14.93;;;9.00;;
28078;SDS011;15388;42.238;24.684;2024-03-22T08:58:13;12.50;;;8.05;;
28078;SDS011;15388;42.238;24.684;2024-03-22T09:00:38;10.63;;;7.65;;
28078;SDS011;15388;42.238;24.684;2024-03-22T09:03:03;11.52;;;8.05;;
28078;SDS011;15388;42.238;24.684;2024-03-22T09:05:29;12.20;;;8.48;;
28078;SDS011;15388;42.238;24.684;2024-03-22T09:07:54;12.43;;;8.90;;
28078;SDS011;15388;42.238;24.684;2024-03-22T09:10:20;12.82;;;9.50;;
28078;SDS011;15388;42.238;24.684;2024-03-22T09:12:46;13.23;;;8.35;;
28078;SDS011;15388;42.238;24.684;2024-03-22T09:15:11;11.45;;;7.65;;
28078;SDS011;15388;42.238;24.684;2024-03-22T09:17:36;12.43;;;7.53;;
28078;SDS011;15388;42.238;24.684;2024-03-22T09:20:02;14.93;;;8.07;;
28078;SDS011;15388;42.238;24.684;2024-03-22T09:22:29;8.88;;;6.78;;
28078;SDS011;15388;42.238;24.684;2024-03-22T09:24:54;12.55;;;7.85;;
28078;SDS011;15388;42.238;24.684;2024-03-22T09:27:19;8.27;;;5.90;;
28078;SDS011;15388;42.238;24.684;2024-03-22T09:29:45;7.95;;;5.78;;
28078;SDS011;15388;42.238;24.684;2024-03-22T09:32:10;8.32;;;5.93;;
28078;SDS011;15388;42.238;24.684;2024-03-22T09:34:36;9.52;;;6.20;;
28078;SDS011;15388;42.238;24.684;2024-03-22T09:37:01;9.65;;;6.20;;
28078;SDS011;15388;42.238;24.684;2024-03-22T09:39:27;17.92;;;6.30;;
28078;SDS011;15388;42.238;24.684;2024-03-22T09:41:52;9.73;;;6.10;;
28078;SDS011;15388;42.238;24.684;2024-03-22T09:44:21;81.90;;;11.10;;
28078;SDS011;15388;42.238;24.684;2024-03-22T09:46:48;8.15;;;5.47;;
28078;SDS011;15388;42.238;24.684;2024-03-22T09:49:15;7.13;;;5.78;;
28078;SDS011;15388;42.238;24.684;2024-03-22T09:51:41;8.27;;;5.35;;
28078;SDS011;15388;42.238;24.684;2024-03-22T09:54:06;6.63;;;4.97;;
28078;SDS011;15388;42.238;24.684;2024-03-22T09:56:32;7.30;;;4.57;;
28078;SDS011;15388;42.238;24.684;2024-03-22T09:58:57;7.03;;;4.88;;
28078;SDS011;15388;42.238;24.684;2024-03-22T10:01:23;5.05;;;4.25;;
28078;SDS011;15388;42.238;24.684;2024-03-22T10:03:49;5.75;;;4.28;;
28078;SDS011;15388;42.238;24.684;2024-03-22T10:06:14;7.40;;;4.07;;
28078;SDS011;15388;42.238;24.684;2024-03-22T10:08:40;6.90;;;4.90;;
28078;SDS011;15388;42.238;24.684;2024-03-22T10:11:05;9.48;;;4.88;;
28078;SDS011;15388;42.238;24.684;2024-03-22T10:13:31;8.80;;;5.10;;
28078;SDS011;15388;42.238;24.684;2024-03-22T10:15:57;5.82;;;4.45;;
28078;SDS011;15388;42.238;24.684;2024-03-22T10:18:22;20.08;;;5.10;;
28078;SDS011;15388;42.238;24.684;2024-03-22T10:20:58;4.80;;;3.90;;
28078;SDS011;15388;42.238;24.684;2024-03-22T10:23:27;4.45;;;3.65;;
28078;SDS011;15388;42.238;24.684;2024-03-22T10:25:52;7.05;;;4.47;;
28078;SDS011;15388;42.238;24.684;2024-03-22T10:28:17;7.63;;;4.18;;
28078;SDS011;15388;42.238;24.684;2024-03-22T10:30:43;5.03;;;4.05;;
28078;SDS011;15388;42.238;24.684;2024-03-22T10:33:09;7.40;;;4.53;;
28078;SDS011;15388;42.238;24.684;2024-03-22T10:35:35;11.68;;;5.10;;
28078;SDS011;15388;42.238;24.684;2024-03-22T10:38:00;10.48;;;5.35;;
28078;SDS011;15388;42.238;24.684;2024-03-22T10:40:26;8.20;;;5.10;;
28078;SDS011;15388;42.238;24.684;2024-03-22T10:42:52;26.63;;;5.70;;
28078;SDS011;15388;42.238;24.684;2024-03-22T10:45:18;6.00;;;3.90;;
28078;SDS011;15388;42.238;24.684;2024-03-22T10:47:47;4.50;;;3.58;;
28078;SDS011;15388;42.238;24.684;2024-03-22T10:50:13;6.97;;;4.03;;
28078;SDS011;15388;42.238;24.684;2024-03-22T10:52:39;3.97;;;3.25;;
28078;SDS011;15388;42.238;24.684;2024-03-22T10:55:06;3.40;;;2.78;;
28078;SDS011;15388;42.238;24.684;2024-03-22T10:57:32;5.13;;;4.13;;
28078;SDS011;15388;42.238;24.684;2024-03-22T11:00:02;4.00;;;3.13;;
28078;SDS011;15388;42.238;24.684;2024-03-22T11:02:28;5.32;;;3.08;;
28078;SDS011;15388;42.238;24.684;2024-03-22T11:04:57;6.15;;;4.30;;
28078;SDS011;15388;42.238;24.684;2024-03-22T11:07:22;3.30;;;3.00;;
28078;SDS011;15388;42.238;24.684;2024-03-22T11:09:55;5.15;;;3.13;;
28078;SDS011;15388;42.238;24.684;2024-03-22T11:12:20;4.47;;;3.63;;
28078;SDS011;15388;42.238;24.684;2024-03-22T11:14:46;3.65;;;2.90;;
28078;SDS011;15388;42.238;24.684;2024-03-22T11:17:12;3.72;;;2.58;;
28078;SDS011;15388;42.238;24.684;2024-03-22T11:19:38;3.97;;;2.55;;
28078;SDS011;15388;42.238;24.684;2024-03-22T11:22:05;31.02;;;6.20;;
28078;SDS011;15388;42.238;24.684;2024-03-22T11:24:31;3.83;;;3.30;;
28078;SDS011;15388;42.238;24.684;2024-03-22T11:26:56;22.25;;;4.88;;
28078;SDS011;15388;42.238;24.684;2024-03-22T11:29:22;3.72;;;2.90;;
28078;SDS011;15388;42.238;24.684;2024-03-22T11:31:47;5.88;;;3.05;;
28078;SDS011;15388;42.238;24.684;2024-03-22T11:34:13;6.80;;;3.38;;
28078;SDS011;15388;42.238;24.684;2024-03-22T11:36:38;7.28;;;3.28;;
28078;SDS011;15388;42.238;24.684;2024-03-22T11:39:04;5.95;;;3.28;;
28078;SDS011;15388;42.238;24.684;2024-03-22T11:41:29;3.70;;;3.22;;
28078;SDS011;15388;42.238;24.684;2024-03-22T11:43:55;5.45;;;3.30;;
28078;SDS011;15388;42.238;24.684;2024-03-22T11:46:21;2.97;;;2.50;;
28078;SDS011;15388;42.238;24.684;2024-03-22T11:48:50;4.80;;;2.90;;
28078;SDS011;15388;42.238;24.684;2024-03-22T11:51:16;4.65;;;3.17;;
28078;SDS011;15388;42.238;24.684;2024-03-22T11:53:48;4.65;;;3.03;;
28078;SDS011;15388;42.238;24.684;2024-03-22T11:56:13;17.58;;;4.63;;
28078;SDS011;15388;42.238;24.684;2024-03-22T11:58:38;4.43;;;3.38;;
28078;SDS011;15388;42.238;24.684;2024-03-22T12:01:04;8.30;;;3.05;;
28078;SDS011;15388;42.238;24.684;2024-03-22T12:03:29;3.92;;;3.50;;
28078;SDS011;15388;42.238;24.684;2024-03-22T12:05:55;5.13;;;3.17;;
28078;SDS011;15388;42.238;24.684;2024-03-22T12:08:20;6.22;;;3.45;;
28078;SDS011;15388;42.238;24.684;2024-03-22T12:10:45;6.78;;;3.20;;
28078;SDS011;15388;42.238;24.684;2024-03-22T12:13:11;4.45;;;2.95;;
28078;SDS011;15388;42.238;24.684;2024-03-22T12:15:36;3.60;;;2.97;;
28078;SDS011;15388;42.238;24.684;2024-03-22T12:18:02;5.03;;;3.97;;
28078;SDS011;15388;42.238;24.684;2024-03-22T12:20:27;4.40;;;2.95;;
28078;SDS011;15388;42.238;24.684;2024-03-22T12:22:52;3.50;;;3.20;;
28078;SDS011;15388;42.238;24.684;2024-03-22T12:25:18;9.07;;;3.40;;
28078;SDS011;15388;42.238;24.684;2024-03-22T12:27:43;4.22;;;3.15;;
28078;SDS011;15388;42.238;24.684;2024-03-22T12:30:09;5.22;;;3.08;;
28078;SDS011;15388;42.238;24.684;2024-03-22T12:32:35;5.28;;;2.72;;
28078;SDS011;15388;42.238;24.684;2024-03-22T12:35:00;5.18;;;3.17;;
28078;SDS011;15388;42.238;24.684;2024-03-22T12:37:26;8.40;;;3.53;;
28078;SDS011;15388;42.238;24.684;2024-03-22T12:39:52;3.90;;;2.85;;
28078;SDS011;15388;42.238;24.684;2024-03-22T12:42:17;4.30;;;3.70;;
28078;SDS011;15388;42.238;24.684;2024-03-22T12:44:43;4.40;;;2.80;;
28078;SDS011;15388;42.238;24.684;2024-03-22T12:47:08;5.05;;;3.00;;
28078;SDS011;15388;42.238;24.684;2024-03-22T12:49:33;5.57;;;3.25;;
28078;SDS011;15388;42.238;24.684;2024-03-22T12:51:59;4.55;;;3.75;;
28078;SDS011;15388;42.238;24.684;2024-03-22T12:54:24;3.55;;;3.22;;
28078;SDS011;15388;42.238;24.684;2024-03-22T12:56:50;4.13;;;2.90;;
28078;SDS011;15388;42.238;24.684;2024-03-22T12:59:15;6.88;;;3.65;;
28078;SDS011;15388;42.238;24.684;2024-03-22T13:01:41;6.55;;;3.55;;
28078;SDS011;15388;42.238;24.684;2024-03-22T13:04:07;3.80;;;3.10;;
28078;SDS011;15388;42.238;24.684;2024-03-22T13:06:33;3.97;;;3.60;;
28078;SDS011;15388;42.238;24.684;2024-03-22T13:08:59;7.63;;;3.20;;
28078;SDS011;15388;42.238;24.684;2024-03-22T13:11:25;7.43;;;3.00;;
28078;SDS011;15388;42.238;24.684;2024-03-22T13:13:50;5.38;;;3.15;;
28078;SDS011;15388;42.238;24.684;2024-03-22T13:16:15;3.10;;;2.78;;
28078;SDS011;15388;42.238;24.684;2024-03-22T13:18:44;4.60;;;2.92;;
28078;SDS011;15388;42.238;24.684;2024-03-22T13:21:09;4.40;;;3.00;;
28078;SDS011;15388;42.238;24.684;2024-03-22T13:23:36;4.50;;;3.08;;
28078;SDS011;15388;42.238;24.684;2024-03-22T13:26:04;6.60;;;3.40;;
28078;SDS011;15388;42.238;24.684;2024-03-22T13:28:30;3.95;;;3.35;;
28078;SDS011;15388;42.238;24.684;2024-03-22T13:31:02;5.50;;;3.70;;
28078;SDS011;15388;42.238;24.684;2024-03-22T13:33:28;4.40;;;3.30;;
28078;SDS011;15388;42.238;24.684;2024-03-22T13:35:53;5.28;;;3.10;;
28078;SDS011;15388;42.238;24.684;2024-03-22T13:38:19;3.35;;;3.05;;
28078;SDS011;15388;42.238;24.684;2024-03-22T13:40:52;7.35;;;3.42;;
28078;SDS011;15388;42.238;24.684;2024-03-22T13:43:17;6.35;;;3.05;;
28078;SDS011;15388;42.238;24.684;2024-03-22T13:45:43;3.88;;;2.95;;
28078;SDS011;15388;42.238;24.684;2024-03-22T13:48:10;3.92;;;3.33;;
28078;SDS011;15388;42.238;24.684;2024-03-22T13:50:35;18.25;;;4.30;;
28078;SDS011;15388;42.238;24.684;2024-03-22T13:53:01;5.82;;;3.10;;
28078;SDS011;15388;42.238;24.684;2024-03-22T13:55:27;8.38;;;2.60;;
28078;SDS011;15388;42.238;24.684;2024-03-22T13:57:52;7.63;;;2.90;;
28078;SDS011;15388;42.238;24.684;2024-03-22T14:00:17;7.07;;;2.85;;
28078;SDS011;15388;42.238;24.684;2024-03-22T14:02:43;4.68;;;3.42;;
28078;SDS011;15388;42.238;24.684;2024-03-22T14:05:10;6.55;;;4.38;;
28078;SDS011;15388;42.238;24.684;2024-03-22T14:07:36;6.32;;;3.30;;
28078;SDS011;15388;42.238;24.684;2024-03-22T14:10:05;3.75;;;2.90;;
28078;SDS011;15388;42.238;24.684;2024-03-22T14:12:30;4.97;;;2.60;;